createdAt,value
2023-03-20T00:00:35.850Z,14.11
2023-03-20T00:01:35.789Z,14.03
2023-03-20T00:02:35.784Z,14.10
2023-03-20T00:03:35.798Z,14.15
2023-03-20T00:04:35.844Z,14.00
2023-03-20T00:05:36.082Z,14.00
2023-03-20T00:06:35.762Z,14.03
2023-03-20T00:07:35.726Z,13.92
2023-03-20T00:08:35.715Z,13.95
2023-03-20T00:09:35.724Z,13.97
2023-03-20T00:10:35.750Z,13.90
2023-03-20T00:11:35.685Z,13.86
2023-03-20T00:12:35.685Z,13.85
2023-03-20T00:13:35.678Z,13.87
2023-03-20T00:14:35.644Z,13.85
2023-03-20T00:15:35.934Z,13.78
2023-03-20T00:16:35.675Z,13.75
2023-03-20T00:17:35.615Z,13.81
2023-03-20T00:18:35.608Z,13.90
2023-03-20T00:19:35.594Z,13.85
2023-03-20T00:20:35.884Z,13.78
2023-03-20T00:21:35.573Z,13.89
2023-03-20T00:22:35.620Z,13.83
2023-03-20T00:23:35.558Z,13.85
2023-03-20T00:24:35.536Z,13.79
2023-03-20T00:25:35.879Z,13.79
2023-03-20T00:26:35.600Z,13.79
2023-03-20T00:27:35.536Z,13.77
2023-03-20T00:28:35.508Z,13.79
2023-03-20T00:29:35.478Z,13.74
2023-03-20T00:30:35.492Z,13.77
2023-03-20T00:31:35.544Z,13.83
2023-03-20T00:32:35.587Z,13.78
2023-03-20T00:33:35.440Z,13.81
2023-03-20T00:34:35.425Z,13.81
2023-03-20T00:35:35.762Z,13.74
2023-03-20T00:36:35.402Z,13.77
2023-03-20T00:37:35.432Z,13.68
2023-03-20T00:38:35.390Z,13.75
2023-03-20T00:39:35.386Z,13.77
2023-03-20T00:40:35.365Z,13.65
2023-03-20T00:41:35.356Z,13.71
2023-03-20T00:42:35.368Z,13.67
2023-03-20T00:43:35.329Z,13.67
2023-03-20T00:44:35.347Z,13.68
2023-03-20T00:45:35.673Z,13.68
2023-03-20T00:46:35.335Z,13.74
2023-03-20T00:47:35.314Z,13.56
2023-03-20T00:48:35.279Z,13.57
2023-03-20T00:49:35.264Z,13.65
2023-03-20T00:50:35.250Z,13.56
2023-03-20T00:51:35.272Z,13.60
2023-03-20T00:52:35.226Z,13.56
2023-03-20T00:53:35.255Z,13.59
2023-03-20T00:54:35.242Z,13.54
2023-03-20T00:55:35.550Z,13.57
2023-03-20T00:56:35.199Z,13.54
2023-03-20T00:57:35.179Z,13.54
2023-03-20T00:58:35.174Z,13.60
2023-03-20T00:59:35.178Z,13.59
2023-03-20T01:00:35.217Z,13.63
2023-03-20T01:01:35.138Z,13.57
2023-03-20T01:02:35.132Z,13.47
2023-03-20T01:03:35.103Z,13.50
2023-03-20T01:04:35.139Z,13.49
2023-03-20T01:05:35.315Z,13.52
2023-03-20T01:06:35.081Z,13.44
2023-03-20T01:07:35.074Z,13.37
2023-03-20T01:08:35.057Z,13.41
2023-03-20T01:09:35.047Z,13.39
2023-03-20T01:10:35.051Z,13.44
2023-03-20T01:11:35.033Z,13.46
2023-03-20T01:12:35.033Z,13.41
2023-03-20T01:13:35.013Z,13.49
2023-03-20T01:14:34.998Z,13.42
2023-03-20T01:15:35.292Z,13.47
2023-03-20T01:16:35.042Z,13.37
2023-03-20T01:17:34.953Z,13.46
2023-03-20T01:18:34.948Z,13.46
2023-03-20T01:19:34.949Z,13.47
2023-03-20T01:20:34.960Z,13.52
2023-03-20T01:21:34.915Z,13.46
2023-03-20T01:22:34.902Z,13.49
2023-03-20T01:23:34.884Z,13.47
2023-03-20T01:24:34.896Z,13.49
2023-03-20T01:25:35.198Z,13.47
2023-03-20T01:26:34.888Z,13.42
2023-03-20T01:27:34.850Z,13.54
2023-03-20T01:28:34.832Z,13.49
2023-03-20T01:29:34.849Z,13.39
2023-03-20T01:30:34.812Z,13.42
2023-03-20T01:31:34.892Z,13.42
2023-03-20T01:32:34.915Z,13.42
2023-03-20T01:33:34.790Z,13.42
2023-03-20T01:34:34.783Z,13.46
2023-03-20T01:35:35.119Z,13.42
2023-03-20T01:36:34.765Z,13.46
2023-03-20T01:37:34.766Z,13.46
2023-03-20T01:38:34.728Z,13.42
2023-03-20T01:39:34.717Z,13.44
2023-03-20T01:40:34.711Z,13.49
2023-03-20T01:41:34.693Z,13.41
2023-03-20T01:42:34.709Z,13.44
2023-03-20T01:43:34.663Z,13.49
2023-03-20T01:44:34.667Z,13.44
2023-03-20T01:45:34.985Z,13.50
2023-03-20T01:46:34.634Z,13.47
2023-03-20T01:47:34.627Z,13.44
2023-03-20T01:48:34.663Z,13.46
2023-03-20T01:49:34.612Z,13.42
2023-03-20T01:50:34.608Z,13.46
2023-03-20T01:51:34.576Z,13.50
2023-03-20T01:52:34.580Z,13.42
2023-03-20T01:53:34.596Z,13.44
2023-03-20T01:54:34.591Z,13.49
2023-03-20T01:55:34.839Z,13.41
2023-03-20T01:56:34.525Z,13.49
2023-03-20T01:57:34.550Z,13.41
2023-03-20T01:58:34.531Z,13.38
2023-03-20T01:59:34.500Z,13.47
2023-03-20T02:00:34.496Z,13.41
2023-03-20T02:01:34.478Z,13.46
2023-03-20T02:02:34.462Z,13.41
2023-03-20T02:03:34.494Z,13.46
2023-03-20T02:04:34.501Z,13.44
2023-03-20T02:05:34.706Z,13.47
2023-03-20T02:06:34.428Z,13.46
2023-03-20T02:07:34.432Z,13.42
2023-03-20T02:08:34.406Z,13.41
2023-03-20T02:09:34.428Z,13.35
2023-03-20T02:10:34.378Z,13.39
2023-03-20T02:11:34.367Z,13.37
2023-03-20T02:12:34.362Z,13.30
2023-03-20T02:13:34.342Z,13.38
2023-03-20T02:14:34.375Z,13.28
2023-03-20T02:15:34.695Z,13.22
2023-03-20T02:16:34.348Z,13.35
2023-03-20T02:17:34.308Z,13.35
2023-03-20T02:18:34.317Z,13.28
2023-03-20T02:19:34.316Z,13.19
2023-03-20T02:20:34.279Z,13.27
2023-03-20T02:21:34.253Z,13.27
2023-03-20T02:22:34.246Z,13.23
2023-03-20T02:23:34.226Z,13.22
2023-03-20T02:24:34.231Z,13.19
2023-03-20T02:25:34.541Z,13.18
2023-03-20T02:26:34.256Z,13.28
2023-03-20T02:27:34.192Z,13.19
2023-03-20T02:28:34.199Z,13.12
2023-03-20T02:29:34.184Z,13.13
2023-03-20T02:30:34.262Z,13.13
2023-03-20T02:31:34.155Z,13.13
2023-03-20T02:32:34.281Z,13.12
2023-03-20T02:33:34.141Z,13.04
2023-03-20T02:34:34.146Z,13.00
2023-03-20T02:35:34.405Z,12.93
2023-03-20T02:36:34.194Z,12.98
2023-03-20T02:37:34.083Z,13.03
2023-03-20T02:38:34.094Z,13.04
2023-03-20T02:39:34.062Z,13.00
2023-03-20T02:40:34.053Z,13.08
2023-03-20T02:41:34.100Z,13.08
2023-03-20T02:42:34.065Z,13.05
2023-03-20T02:43:34.023Z,12.98
2023-03-20T02:44:34.012Z,13.01
2023-03-20T02:45:34.318Z,13.03
2023-03-20T02:46:34.037Z,13.01
2023-03-20T02:47:34.017Z,13.01
2023-03-20T02:48:33.991Z,12.93
2023-03-20T02:49:33.967Z,12.94
2023-03-20T02:50:34.000Z,12.98
2023-03-20T02:51:33.933Z,12.93
2023-03-20T02:52:33.942Z,12.98
2023-03-20T02:53:33.946Z,12.95
2023-03-20T02:54:33.922Z,12.98
2023-03-20T02:55:34.356Z,13.00
2023-03-20T02:56:33.880Z,12.95
2023-03-20T02:57:33.903Z,12.95
2023-03-20T02:58:33.884Z,12.91
2023-03-20T02:59:33.845Z,12.94
2023-03-20T03:00:33.827Z,12.93
2023-03-20T03:01:33.948Z,12.95
2023-03-20T03:02:33.854Z,12.87
2023-03-20T03:03:33.838Z,13.03
2023-03-20T03:04:33.792Z,13.00
2023-03-20T03:05:34.143Z,12.94
2023-03-20T03:06:33.769Z,12.93
2023-03-20T03:07:33.756Z,12.98
2023-03-20T03:08:33.807Z,12.95
2023-03-20T03:09:33.732Z,12.87
2023-03-20T03:10:33.758Z,13.01
2023-03-20T03:11:33.710Z,12.97
2023-03-20T03:12:33.702Z,12.91
2023-03-20T03:13:33.731Z,12.95
2023-03-20T03:14:33.675Z,12.94
2023-03-20T03:15:33.912Z,12.87
2023-03-20T03:16:33.663Z,13.00
2023-03-20T03:17:33.655Z,12.95
2023-03-20T03:18:33.648Z,12.95
2023-03-20T03:19:33.625Z,12.94
2023-03-20T03:20:33.658Z,12.91
2023-03-20T03:21:33.607Z,12.79
2023-03-20T03:22:33.598Z,12.75
2023-03-20T03:23:33.620Z,12.73
2023-03-20T03:24:40.822Z,12.65
2023-03-20T03:25:34.880Z,12.70
2023-03-20T03:26:33.556Z,12.64
2023-03-20T03:27:33.544Z,12.68
2023-03-20T03:28:33.562Z,12.62
2023-03-20T03:29:33.550Z,12.68
2023-03-20T03:30:33.513Z,12.67
2023-03-20T03:31:33.594Z,12.70
2023-03-20T03:32:33.555Z,12.62
2023-03-20T03:33:33.476Z,12.68
2023-03-20T03:34:33.475Z,12.67
2023-03-20T03:35:33.644Z,12.78
2023-03-20T03:36:33.449Z,12.78
2023-03-20T03:37:33.469Z,12.79
2023-03-20T03:38:33.425Z,12.75
2023-03-20T03:39:33.405Z,12.75
2023-03-20T03:40:33.520Z,12.67
2023-03-20T03:41:33.416Z,12.73
2023-03-20T03:42:33.386Z,12.67
2023-03-20T03:43:33.372Z,12.65
2023-03-20T03:44:33.361Z,12.72
2023-03-20T03:45:34.037Z,12.72
2023-03-20T03:46:33.571Z,12.65
2023-03-20T03:47:33.319Z,12.68
2023-03-20T03:48:33.474Z,12.70
2023-03-20T03:49:33.323Z,12.72
2023-03-20T03:50:33.314Z,12.64
2023-03-20T03:51:33.269Z,12.70
2023-03-20T03:52:33.282Z,12.62
2023-03-20T03:53:33.262Z,12.72
2023-03-20T03:54:33.303Z,12.70
2023-03-20T03:55:33.461Z,12.68
2023-03-20T03:56:33.252Z,12.64
2023-03-20T03:57:33.209Z,12.64
2023-03-20T03:58:33.209Z,12.58
2023-03-20T03:59:33.192Z,12.60
2023-03-20T04:00:33.221Z,12.57
2023-03-20T04:01:33.217Z,12.54
2023-03-20T04:02:33.165Z,12.58
2023-03-20T04:03:33.149Z,12.61
2023-03-20T04:04:33.200Z,12.53
2023-03-20T04:05:33.333Z,12.54
2023-03-20T04:06:33.162Z,12.54
2023-03-20T04:07:33.105Z,12.47
2023-03-20T04:08:33.095Z,12.55
2023-03-20T04:09:33.087Z,12.47
2023-03-20T04:10:33.080Z,12.60
2023-03-20T04:11:33.063Z,12.60
2023-03-20T04:12:33.100Z,12.62
2023-03-20T04:13:33.038Z,12.50
2023-03-20T04:14:33.039Z,12.53
2023-03-20T04:15:33.297Z,12.53
2023-03-20T04:16:33.070Z,12.54
2023-03-20T04:17:33.001Z,12.42
2023-03-20T04:18:33.012Z,12.47
2023-03-20T04:19:32.974Z,12.46
2023-03-20T04:20:32.973Z,12.55
2023-03-20T04:21:32.949Z,12.43
2023-03-20T04:22:32.937Z,12.42
2023-03-20T04:23:32.956Z,12.45
2023-03-20T04:24:32.917Z,12.43
2023-03-20T04:25:32.908Z,12.47
2023-03-20T04:26:32.904Z,12.40
2023-03-20T04:27:32.893Z,12.43
2023-03-20T04:28:32.934Z,12.45
2023-03-20T04:29:32.866Z,12.43
2023-03-20T04:30:32.902Z,12.47
2023-03-20T04:31:33.020Z,12.49
2023-03-20T04:32:32.919Z,12.50
2023-03-20T04:33:32.833Z,12.53
2023-03-20T04:34:32.818Z,12.49
2023-03-20T04:35:32.842Z,12.46
2023-03-20T04:36:32.795Z,12.40
2023-03-20T04:37:32.802Z,12.53
2023-03-20T04:38:32.777Z,12.54
2023-03-20T04:39:32.790Z,12.54
2023-03-20T04:40:32.787Z,12.53
2023-03-20T04:41:32.735Z,12.53
2023-03-20T04:42:32.730Z,12.57
2023-03-20T04:43:32.712Z,12.47
2023-03-20T04:44:32.788Z,12.54
2023-03-20T04:45:32.769Z,12.55
2023-03-20T04:46:32.680Z,12.54
2023-03-20T04:47:32.669Z,12.55
2023-03-20T04:48:32.691Z,12.46
2023-03-20T04:49:32.656Z,12.55
2023-03-20T04:50:32.650Z,12.50
2023-03-20T04:51:32.648Z,12.61
2023-03-20T04:52:32.612Z,12.55
2023-03-20T04:53:32.609Z,12.60
2023-03-20T04:54:32.593Z,12.60
2023-03-20T04:55:32.667Z,12.60
2023-03-20T04:56:32.578Z,12.55
2023-03-20T04:57:32.564Z,12.60
2023-03-20T04:58:32.548Z,12.57
2023-03-20T04:59:32.536Z,12.60
2023-03-20T05:00:32.557Z,12.60
2023-03-20T05:01:32.605Z,12.57
2023-03-20T05:02:32.542Z,12.57
2023-03-20T05:03:32.489Z,12.60
2023-03-20T05:04:32.593Z,12.58
2023-03-20T05:05:32.489Z,12.57
2023-03-20T05:06:32.468Z,12.57
2023-03-20T05:07:32.487Z,12.54
2023-03-20T05:08:32.441Z,12.53
2023-03-20T05:09:32.426Z,12.54
2023-03-20T05:10:32.412Z,12.49
2023-03-20T05:11:32.414Z,12.60
2023-03-20T05:12:32.423Z,12.58
2023-03-20T05:13:32.390Z,12.53
2023-03-20T05:14:32.374Z,12.57
2023-03-20T05:15:32.368Z,12.54
2023-03-20T05:16:32.424Z,12.62
2023-03-20T05:17:32.400Z,12.58
2023-03-20T05:18:32.336Z,12.55
2023-03-20T05:19:32.340Z,12.64
2023-03-20T05:20:32.314Z,12.53
2023-03-20T05:21:32.308Z,12.45
2023-03-20T05:22:32.292Z,12.57
2023-03-20T05:23:32.308Z,12.45
2023-03-20T05:24:32.272Z,12.50
2023-03-20T05:25:32.251Z,12.43
2023-03-20T05:26:32.248Z,12.50
2023-03-20T05:27:32.261Z,12.57
2023-03-20T05:28:32.248Z,12.49
2023-03-20T05:29:32.210Z,12.47
2023-03-20T05:30:32.200Z,12.49
2023-03-20T05:31:32.192Z,12.46
2023-03-20T05:32:32.252Z,12.46
2023-03-20T05:33:32.200Z,12.46
2023-03-20T05:34:32.145Z,12.39
2023-03-20T05:35:32.134Z,12.49
2023-03-20T05:36:32.141Z,12.46
2023-03-20T05:37:32.125Z,12.49
2023-03-20T05:38:32.107Z,12.49
2023-03-20T05:39:32.127Z,12.50
2023-03-20T05:40:32.096Z,12.54
2023-03-20T05:41:32.072Z,12.60
2023-03-20T05:42:32.064Z,12.55
2023-03-20T05:43:32.083Z,12.55
2023-03-20T05:44:32.070Z,12.60
2023-03-20T05:45:32.045Z,12.61
2023-03-20T05:46:32.088Z,12.54
2023-03-20T05:47:32.012Z,12.61
2023-03-20T05:48:32.020Z,12.60
2023-03-20T05:49:32.016Z,12.58
2023-03-20T05:50:31.975Z,12.70
2023-03-20T05:51:31.962Z,12.67
2023-03-20T05:52:31.950Z,12.70
2023-03-20T05:53:31.942Z,12.67
2023-03-20T05:54:31.966Z,12.67
2023-03-20T05:55:31.934Z,12.68
2023-03-20T05:56:32.115Z,12.73
2023-03-20T05:57:31.900Z,12.64
2023-03-20T05:58:31.887Z,12.62
2023-03-20T05:59:31.926Z,12.65
2023-03-20T06:00:31.880Z,12.70
2023-03-20T06:01:31.861Z,12.68
2023-03-20T06:02:31.879Z,12.60
2023-03-20T06:03:31.893Z,12.72
2023-03-20T06:04:31.860Z,12.58
2023-03-20T06:05:31.850Z,12.58
2023-03-20T06:06:31.803Z,12.60
2023-03-20T06:07:31.792Z,12.60
2023-03-20T06:08:31.785Z,12.60
2023-03-20T06:09:31.786Z,12.57
2023-03-20T06:10:31.808Z,12.57
2023-03-20T06:11:31.753Z,12.57
2023-03-20T06:12:31.741Z,12.55
2023-03-20T06:13:31.731Z,12.54
2023-03-20T06:14:31.714Z,12.62
2023-03-20T06:15:31.867Z,12.49
2023-03-20T06:16:31.728Z,12.67
2023-03-20T06:17:31.693Z,12.57
2023-03-20T06:18:31.669Z,12.50
2023-03-20T06:19:31.657Z,12.54
2023-03-20T06:20:31.702Z,12.50
2023-03-20T06:21:31.666Z,12.62
2023-03-20T06:22:31.628Z,12.55
2023-03-20T06:23:31.615Z,12.50
2023-03-20T06:24:31.626Z,12.45
2023-03-20T06:25:31.615Z,12.62
2023-03-20T06:26:31.614Z,12.49
2023-03-20T06:27:31.569Z,12.55
2023-03-20T06:28:31.558Z,12.45
2023-03-20T06:29:31.549Z,12.35
2023-03-20T06:30:31.545Z,12.37
2023-03-20T06:31:31.628Z,12.31
2023-03-20T06:32:31.535Z,12.39
2023-03-20T06:33:31.514Z,12.35
2023-03-20T06:34:31.546Z,12.39
2023-03-20T06:35:31.593Z,12.37
2023-03-20T06:36:31.520Z,12.37
2023-03-20T06:37:31.458Z,12.29
2023-03-20T06:38:31.476Z,12.29
2023-03-20T06:39:31.444Z,12.21
2023-03-20T06:40:31.425Z,12.21
2023-03-20T06:41:34.768Z,12.18
2023-03-20T06:42:31.536Z,12.17
2023-03-20T06:43:31.405Z,12.17
2023-03-20T06:44:31.413Z,12.22
2023-03-20T06:45:31.372Z,12.21
2023-03-20T06:46:31.435Z,12.31
2023-03-20T06:47:31.383Z,12.21
2023-03-20T06:48:31.379Z,12.24
2023-03-20T06:49:31.332Z,12.31
2023-03-20T06:50:31.335Z,12.25
2023-03-20T06:51:31.326Z,12.28
2023-03-20T06:52:31.319Z,12.22
2023-03-20T06:53:31.318Z,12.25
2023-03-20T06:54:31.289Z,12.24
2023-03-20T06:55:31.264Z,12.24
2023-03-20T06:56:31.262Z,12.24
2023-03-20T06:57:31.245Z,12.25
2023-03-20T06:58:31.270Z,12.18
2023-03-20T06:59:31.222Z,12.21
2023-03-20T07:00:31.284Z,12.24
2023-03-20T07:01:31.237Z,12.22
2023-03-20T07:02:31.191Z,12.25
2023-03-20T07:03:31.222Z,12.22
2023-03-20T07:04:31.189Z,12.24
2023-03-20T07:05:31.155Z,12.18
2023-03-20T07:06:31.180Z,12.31
2023-03-20T07:07:31.144Z,12.25
2023-03-20T07:08:31.376Z,12.21
2023-03-20T07:09:31.141Z,12.24
2023-03-20T07:10:31.134Z,12.18
2023-03-20T07:11:31.101Z,12.17
2023-03-20T07:12:31.094Z,12.20
2023-03-20T07:13:31.065Z,12.18
2023-03-20T07:14:31.068Z,12.17
2023-03-20T07:15:31.104Z,12.21
2023-03-20T07:16:31.190Z,12.15
2023-03-20T07:17:31.032Z,12.18
2023-03-20T07:18:31.013Z,12.31
2023-03-20T07:19:31.020Z,12.27
2023-03-20T07:20:30.993Z,12.21
2023-03-20T07:21:31.017Z,12.22
2023-03-20T07:22:31.001Z,12.15
2023-03-20T07:23:30.965Z,12.12
2023-03-20T07:24:30.977Z,12.10
2023-03-20T07:25:41.867Z,12.10
2023-03-20T07:26:31.960Z,12.03
2023-03-20T07:27:30.928Z,12.09
2023-03-20T07:28:30.909Z,12.00
2023-03-20T07:29:30.895Z,12.02
2023-03-20T07:30:30.884Z,12.10
2023-03-20T07:31:30.916Z,12.02
2023-03-20T07:32:30.917Z,12.04
2023-03-20T07:33:30.869Z,12.03
2023-03-20T07:34:30.849Z,12.04
2023-03-20T07:35:30.865Z,11.97
2023-03-20T07:36:30.829Z,12.02
2023-03-20T07:37:30.836Z,12.04
2023-03-20T07:38:30.803Z,11.94
2023-03-20T07:39:30.781Z,12.02
2023-03-20T07:40:30.814Z,11.97
2023-03-20T07:41:30.801Z,11.94
2023-03-20T07:42:30.819Z,11.94
2023-03-20T07:43:30.767Z,11.91
2023-03-20T07:44:30.747Z,11.97
2023-03-20T07:45:30.769Z,12.00
2023-03-20T07:46:30.715Z,11.99
2023-03-20T07:47:30.790Z,12.00
2023-03-20T07:48:30.727Z,12.04
2023-03-20T07:49:30.672Z,11.95
2023-03-20T07:50:30.677Z,11.99
2023-03-20T07:51:30.649Z,11.88
2023-03-20T07:52:30.678Z,11.88
2023-03-20T07:53:30.659Z,12.02
2023-03-20T07:54:30.620Z,12.02
2023-03-20T07:55:30.611Z,12.00
2023-03-20T07:56:30.622Z,12.04
2023-03-20T07:57:30.585Z,12.04
2023-03-20T07:58:30.604Z,12.12
2023-03-20T07:59:30.560Z,12.17
2023-03-20T08:00:30.559Z,12.25
2023-03-20T08:01:30.536Z,12.27
2023-03-20T08:02:30.638Z,12.29
2023-03-20T08:03:30.808Z,12.32
2023-03-20T08:04:30.518Z,12.36
2023-03-20T08:05:30.508Z,12.47
2023-03-20T08:06:30.490Z,12.39
2023-03-20T08:07:30.493Z,12.47
2023-03-20T08:08:30.476Z,12.64
2023-03-20T08:09:30.500Z,12.53
2023-03-20T08:10:30.457Z,12.58
2023-03-20T08:11:32.541Z,12.60
2023-03-20T08:12:30.441Z,12.61
2023-03-20T08:13:30.413Z,12.70
2023-03-20T08:14:30.432Z,12.57
2023-03-20T08:15:30.433Z,12.64
2023-03-20T08:16:30.449Z,12.61
2023-03-20T08:17:30.512Z,12.73
2023-03-20T08:18:30.373Z,12.76
2023-03-20T08:19:30.355Z,12.73
2023-03-20T08:20:30.602Z,12.82
2023-03-20T08:21:30.368Z,12.72
2023-03-20T08:22:30.325Z,12.64
2023-03-20T08:23:30.314Z,12.70
2023-03-20T08:24:30.294Z,12.68
2023-03-20T08:25:30.283Z,12.64
2023-03-20T08:26:30.318Z,12.64
2023-03-20T08:27:30.260Z,12.75
2023-03-20T08:28:46.152Z,12.79
2023-03-20T08:29:31.238Z,12.78
2023-03-20T08:30:30.288Z,12.70
2023-03-20T08:31:30.244Z,12.75
2023-03-20T08:32:30.217Z,12.70
2023-03-20T08:33:30.200Z,12.73
2023-03-20T08:34:30.224Z,12.82
2023-03-20T08:35:33.686Z,12.83
2023-03-20T08:36:30.162Z,12.82
2023-03-20T08:37:30.188Z,12.85
2023-03-20T08:38:30.144Z,12.83
2023-03-20T08:39:30.143Z,12.87
2023-03-20T08:40:30.127Z,12.93
2023-03-20T08:41:30.117Z,13.05
2023-03-20T08:42:30.104Z,13.28
2023-03-20T08:43:30.116Z,13.56
2023-03-20T08:44:30.312Z,13.68
2023-03-20T08:45:30.070Z,13.96
2023-03-20T08:46:30.093Z,14.17
2023-03-20T08:47:30.048Z,14.32
2023-03-20T08:48:30.070Z,14.58
2023-03-20T08:49:30.061Z,14.70
2023-03-20T08:50:30.011Z,14.79
2023-03-20T08:51:30.004Z,15.02
2023-03-20T08:52:29.993Z,15.29
2023-03-20T08:53:30.002Z,15.46
2023-03-20T08:54:29.980Z,15.64
2023-03-20T08:55:29.959Z,15.82
2023-03-20T08:56:29.940Z,15.84
2023-03-20T08:57:29.928Z,16.02
2023-03-20T08:58:29.948Z,16.02
2023-03-20T08:59:37.679Z,15.86
2023-03-20T09:00:29.910Z,15.86
2023-03-20T09:01:46.010Z,15.82
2023-03-20T09:02:31.021Z,15.90
2023-03-20T09:03:29.902Z,15.84
2023-03-20T09:04:29.853Z,15.65
2023-03-20T09:05:29.840Z,15.59
2023-03-20T09:06:29.834Z,15.51
2023-03-20T09:07:29.825Z,15.54
2023-03-20T09:08:29.811Z,15.57
2023-03-20T09:09:30.232Z,15.55
2023-03-20T09:10:29.794Z,15.52
2023-03-20T09:11:29.785Z,15.82
2023-03-20T09:12:29.771Z,15.86
2023-03-20T09:13:29.791Z,15.88
2023-03-20T09:14:29.753Z,16.12
2023-03-20T09:15:29.754Z,16.01
2023-03-20T09:16:29.786Z,16.01
2023-03-20T09:17:29.725Z,15.75
2023-03-20T09:18:29.706Z,15.75
2023-03-20T09:19:31.375Z,15.70
2023-03-20T09:20:29.682Z,15.55
2023-03-20T09:21:29.667Z,15.52
2023-03-20T09:22:29.655Z,15.35
2023-03-20T09:23:29.675Z,15.18
2023-03-20T09:24:29.654Z,15.03
2023-03-20T09:25:29.617Z,15.00
2023-03-20T09:26:29.645Z,14.82
2023-03-20T09:27:29.651Z,14.69
2023-03-20T09:28:29.735Z,14.65
2023-03-20T09:29:29.574Z,14.68
2023-03-20T09:30:29.607Z,14.69
2023-03-20T09:31:29.686Z,14.70
2023-03-20T09:32:29.555Z,14.63
2023-03-20T09:33:29.574Z,14.88
2023-03-20T09:34:29.611Z,15.02
2023-03-20T09:35:29.517Z,15.11
2023-03-20T09:36:29.512Z,15.44
2023-03-20T09:37:29.498Z,15.76
2023-03-20T09:38:29.505Z,16.08
2023-03-20T09:39:29.480Z,16.43
2023-03-20T09:40:29.461Z,16.71
2023-03-20T09:41:29.459Z,17.05
2023-03-20T09:42:29.454Z,17.22
2023-03-20T09:43:29.502Z,17.46
2023-03-20T09:44:29.416Z,17.46
2023-03-20T09:45:29.420Z,17.38
2023-03-20T09:46:29.405Z,17.16
2023-03-20T09:47:29.423Z,17.14
2023-03-20T09:48:29.408Z,17.04
2023-03-20T09:50:38.597Z,16.79
2023-03-20T09:51:38.138Z,16.68
2023-03-20T09:52:38.127Z,16.51
2023-03-20T09:53:38.132Z,16.35
2023-03-20T09:54:53.124Z,16.17
2023-03-20T09:55:39.643Z,16.05
2023-03-20T09:56:38.089Z,15.94
2023-03-20T09:57:38.095Z,15.88
2023-03-20T09:58:38.088Z,15.91
2023-03-20T09:59:38.102Z,15.83
2023-03-20T10:00:38.428Z,15.65
2023-03-20T10:01:39.745Z,15.54
2023-03-20T10:02:38.031Z,15.44
2023-03-20T10:03:38.015Z,15.44
2023-03-20T10:04:38.079Z,15.36
2023-03-20T10:05:38.370Z,15.24
2023-03-20T10:06:38.006Z,15.22
2023-03-20T10:07:37.964Z,15.02
2023-03-20T10:08:37.959Z,14.97
2023-03-20T10:09:37.972Z,14.91
2023-03-20T10:10:38.449Z,14.73
2023-03-20T10:11:37.935Z,14.68
2023-03-20T10:12:37.905Z,14.68
2023-03-20T10:13:37.912Z,14.72
2023-03-20T10:14:37.934Z,14.54
2023-03-20T10:15:37.909Z,14.62
2023-03-20T10:16:37.899Z,14.62
2023-03-20T10:17:37.866Z,14.44
2023-03-20T10:18:37.868Z,14.45
2023-03-20T10:19:37.847Z,14.48
2023-03-20T10:20:38.258Z,14.45
2023-03-20T10:21:37.817Z,14.41
2023-03-20T10:22:37.806Z,14.30
2023-03-20T10:23:37.792Z,14.15
2023-03-20T10:24:37.775Z,14.17
2023-03-20T10:25:37.827Z,14.26
2023-03-20T10:26:37.761Z,14.36
2023-03-20T10:27:37.744Z,14.30
2023-03-20T10:28:37.742Z,14.29
2023-03-20T10:29:37.727Z,14.33
2023-03-20T10:30:38.145Z,14.45
2023-03-20T10:31:37.823Z,14.44
2023-03-20T10:32:37.745Z,14.51
2023-03-20T10:33:37.700Z,14.44
2023-03-20T10:34:37.719Z,14.41
2023-03-20T10:35:37.734Z,14.33
2023-03-20T10:36:37.642Z,14.17
2023-03-20T10:37:37.631Z,14.14
2023-03-20T10:38:37.679Z,14.15
2023-03-20T10:39:37.650Z,14.14
2023-03-20T10:40:38.130Z,14.14
2023-03-20T10:41:37.612Z,14.08
2023-03-20T10:42:37.581Z,14.26
2023-03-20T10:43:40.177Z,14.23
2023-03-20T10:44:37.618Z,14.28
2023-03-20T10:45:37.570Z,14.20
2023-03-20T10:46:37.614Z,14.17
2023-03-20T10:47:37.558Z,14.11
2023-03-20T10:48:37.521Z,14.03
2023-03-20T10:49:37.511Z,14.07
2023-03-20T10:50:37.779Z,13.97
2023-03-20T10:51:37.495Z,13.86
2023-03-20T10:52:37.487Z,13.95
2023-03-20T10:53:37.483Z,13.92
2023-03-20T10:54:37.465Z,13.93
2023-03-20T10:55:37.481Z,13.86
2023-03-20T10:56:37.448Z,13.75
2023-03-20T10:57:37.419Z,13.83
2023-03-20T10:58:37.408Z,13.67
2023-03-20T10:59:37.442Z,13.72
2023-03-20T11:00:37.802Z,13.63
2023-03-20T11:01:37.449Z,13.71
2023-03-20T11:02:37.365Z,13.77
2023-03-20T11:03:37.401Z,13.77
2023-03-20T11:04:37.411Z,13.78
2023-03-20T11:05:37.341Z,13.77
2023-03-20T11:06:37.349Z,13.79
2023-03-20T11:07:37.322Z,13.86
2023-03-20T11:08:37.309Z,13.97
2023-03-20T11:09:37.336Z,13.95
2023-03-20T11:10:37.668Z,14.08
2023-03-20T11:11:37.270Z,14.05
2023-03-20T11:12:37.260Z,14.12
2023-03-20T11:13:37.267Z,14.18
2023-03-20T11:14:37.242Z,14.15
2023-03-20T11:15:37.253Z,14.20
2023-03-20T11:16:37.272Z,14.23
2023-03-20T11:17:37.201Z,14.17
2023-03-20T11:18:37.192Z,14.17
2023-03-20T11:19:37.218Z,14.22
2023-03-20T11:20:37.406Z,14.20
2023-03-20T11:21:37.207Z,14.17
2023-03-20T11:22:37.178Z,14.36
2023-03-20T11:23:37.149Z,14.32
2023-03-20T11:24:37.143Z,14.40
2023-03-20T11:25:37.172Z,14.45
2023-03-20T11:26:37.113Z,14.43
2023-03-20T11:27:37.099Z,14.45
2023-03-20T11:28:37.087Z,14.53
2023-03-20T11:29:37.136Z,14.59
2023-03-20T11:30:37.374Z,14.60
2023-03-20T11:31:37.250Z,14.60
2023-03-20T11:32:37.161Z,14.66
2023-03-20T11:33:37.040Z,14.69
2023-03-20T11:34:37.021Z,14.70
2023-03-20T11:35:37.048Z,14.84
2023-03-20T11:36:37.018Z,14.85
2023-03-20T11:37:37.014Z,14.94
2023-03-20T11:38:36.999Z,14.97
2023-03-20T11:39:36.968Z,15.02
2023-03-20T11:40:37.123Z,15.10
2023-03-20T11:41:38.668Z,15.11
2023-03-20T11:42:36.975Z,15.19
2023-03-20T11:43:36.950Z,15.21
2023-03-20T11:44:36.944Z,15.21
2023-03-20T11:45:36.966Z,15.09
2023-03-20T11:46:36.886Z,15.25
2023-03-20T11:47:36.888Z,15.14
2023-03-20T11:48:36.907Z,15.17
2023-03-20T11:49:36.852Z,15.11
2023-03-20T11:50:37.288Z,15.10
2023-03-20T11:51:36.865Z,15.06
2023-03-20T11:52:36.836Z,15.06
2023-03-20T11:53:36.840Z,14.97
2023-03-20T11:54:36.879Z,15.04
2023-03-20T11:55:36.788Z,15.04
2023-03-20T11:56:36.807Z,14.88
2023-03-20T11:57:36.797Z,14.94
2023-03-20T11:58:36.755Z,14.86
2023-03-20T11:59:36.823Z,14.84
2023-03-20T12:00:37.095Z,14.86
2023-03-20T12:01:36.725Z,14.72
2023-03-20T12:02:36.794Z,14.88
2023-03-20T12:03:36.797Z,14.68
2023-03-20T12:04:36.743Z,14.84
2023-03-20T12:05:36.844Z,14.79
2023-03-20T12:06:36.679Z,14.88
2023-03-20T12:07:36.695Z,14.92
2023-03-20T12:08:36.658Z,14.96
2023-03-20T12:09:36.656Z,14.94
2023-03-20T12:10:36.975Z,14.81
2023-03-20T12:11:36.635Z,14.89
2023-03-20T12:12:36.606Z,14.79
2023-03-20T12:13:36.592Z,14.79
2023-03-20T12:14:36.631Z,14.69
2023-03-20T12:15:36.643Z,14.62
2023-03-20T12:16:36.597Z,14.60
2023-03-20T12:17:36.561Z,14.55
2023-03-20T12:18:36.548Z,14.58
2023-03-20T12:19:36.534Z,14.59
2023-03-20T12:20:37.047Z,14.69
2023-03-20T12:21:36.557Z,14.66
2023-03-20T12:22:36.508Z,14.70
2023-03-20T12:23:36.497Z,14.79
2023-03-20T12:24:36.490Z,14.86
2023-03-20T12:25:36.467Z,14.81
2023-03-20T12:26:36.507Z,14.78
2023-03-20T12:27:36.470Z,14.84
2023-03-20T12:28:36.451Z,14.82
2023-03-20T12:29:36.424Z,14.91
2023-03-20T12:30:36.710Z,14.94
2023-03-20T12:31:36.522Z,15.04
2023-03-20T12:32:36.458Z,15.02
2023-03-20T12:33:36.386Z,14.97
2023-03-20T12:34:36.370Z,14.89
2023-03-20T12:35:36.434Z,14.94
2023-03-20T12:36:36.352Z,15.00
2023-03-20T12:37:36.384Z,15.00
2023-03-20T12:38:36.346Z,15.02
2023-03-20T12:39:36.331Z,14.99
2023-03-20T12:40:36.654Z,15.02
2023-03-20T12:41:36.307Z,15.02
2023-03-20T12:42:36.349Z,14.97
2023-03-20T12:43:36.291Z,14.96
2023-03-20T12:44:36.263Z,14.94
2023-03-20T12:45:36.247Z,14.96
2023-03-20T12:46:36.312Z,14.94
2023-03-20T12:47:36.283Z,14.96
2023-03-20T12:48:36.247Z,14.85
2023-03-20T12:49:36.228Z,14.79
2023-03-20T12:50:36.635Z,14.79
2023-03-20T12:51:36.204Z,14.82
2023-03-20T12:52:36.225Z,14.79
2023-03-20T12:53:36.173Z,14.81